createdAt,value
2019-06-20T00:00:00.977Z,21.95
2019-06-20T00:05:04.908Z,21.96
2019-06-20T00:10:07.810Z,21.84
2019-06-20T00:15:10.932Z,21.79
2019-06-20T00:20:13.999Z,21.74
2019-06-20T00:25:16.805Z,21.45
2019-06-20T00:30:19.581Z,21.51
2019-06-20T00:35:22.364Z,21.46
2019-06-20T00:40:25.139Z,21.40
2019-06-20T00:45:27.933Z,21.38
2019-06-20T00:50:30.717Z,21.40
2019-06-20T00:55:33.499Z,21.38
2019-06-20T01:00:36.464Z,21.29
2019-06-20T01:05:39.283Z,21.33
2019-06-20T01:10:42.381Z,21.33
2019-06-20T01:15:45.162Z,21.40
2019-06-20T01:20:48.005Z,21.45
2019-06-20T01:25:50.754Z,21.48
2019-06-20T01:30:53.552Z,21.48
2019-06-20T01:36:02.173Z,21.45
2019-06-20T01:41:06.209Z,21.41
2019-06-20T01:46:09.272Z,21.32
2019-06-20T01:51:12.048Z,21.22
2019-06-20T01:56:14.827Z,21.13
2019-06-20T02:01:17.726Z,21.12
2019-06-20T02:06:20.641Z,21.12
2019-06-20T02:11:23.526Z,21.09
2019-06-20T02:16:26.304Z,21.05
2019-06-20T02:21:29.089Z,21.03
2019-06-20T02:26:31.888Z,20.99
2019-06-20T02:31:34.814Z,20.92
2019-06-20T02:36:37.639Z,20.89
2019-06-20T02:41:40.635Z,20.85
2019-06-20T02:46:43.421Z,20.81
2019-06-20T02:51:47.249Z,20.78
2019-06-20T02:56:50.190Z,20.82
2019-06-20T03:01:53.106Z,20.81
2019-06-20T03:06:55.874Z,20.86
2019-06-20T03:11:58.659Z,20.84
2019-06-20T03:17:01.520Z,20.81
2019-06-20T03:22:04.554Z,20.85
2019-06-20T03:27:08.187Z,20.92
2019-06-20T03:32:11.063Z,20.98
2019-06-20T03:37:13.978Z,21.06
2019-06-20T03:42:16.803Z,21.05
2019-06-20T03:47:19.647Z,21.11
2019-06-20T03:52:22.471Z,21.25
2019-06-20T03:57:25.264Z,21.39
2019-06-20T04:02:28.028Z,21.51
2019-06-20T04:07:30.973Z,21.67
2019-06-20T04:12:33.878Z,21.83
2019-06-20T04:17:36.670Z,21.94
2019-06-20T04:22:39.468Z,22.00
2019-06-20T04:27:42.243Z,22.17
2019-06-20T04:32:45.337Z,22.26
2019-06-20T04:37:48.545Z,22.29
2019-06-20T04:42:51.344Z,22.27
2019-06-20T04:47:54.131Z,22.29
2019-06-20T04:52:57.077Z,22.15
2019-06-20T04:58:00.007Z,22.03
2019-06-20T05:03:03.201Z,21.92
2019-06-20T05:08:06.032Z,21.86
2019-06-20T05:13:08.830Z,22.01
2019-06-20T05:18:11.750Z,22.03
2019-06-20T05:23:14.579Z,22.08
2019-06-20T05:28:17.469Z,21.97
2019-06-20T05:33:20.250Z,21.88
2019-06-20T05:38:23.034Z,22.00
2019-06-20T05:43:25.952Z,22.11
2019-06-20T05:48:28.781Z,22.14
2019-06-20T05:53:31.589Z,22.35
2019-06-20T05:58:34.530Z,22.45
2019-06-20T06:03:37.345Z,22.47
2019-06-20T06:08:40.211Z,22.65
2019-06-20T06:13:43.053Z,22.78
2019-06-20T06:18:45.877Z,22.87
2019-06-20T06:23:51.142Z,22.86
2019-06-20T06:28:54.079Z,22.94
2019-06-20T06:33:56.992Z,23.25
2019-06-20T06:38:59.803Z,23.60
2019-06-20T06:44:02.899Z,23.67
2019-06-20T06:49:05.714Z,23.64
2019-06-20T06:54:10.166Z,24.16
2019-06-20T06:59:13.420Z,24.41
2019-06-20T07:04:16.716Z,24.45
2019-06-20T07:09:19.855Z,24.15
2019-06-20T07:14:22.743Z,24.34
2019-06-20T07:19:25.875Z,24.81
2019-06-20T07:24:28.821Z,25.07
2019-06-20T07:29:31.779Z,24.77
2019-06-20T07:34:35.145Z,24.51
2019-06-20T07:39:39.400Z,24.77
2019-06-20T07:44:42.953Z,25.39
2019-06-20T07:49:46.567Z,25.84
2019-06-20T07:54:50.293Z,25.28
2019-06-20T07:59:54.268Z,24.91
2019-06-20T08:04:58.957Z,25.26
2019-06-20T08:10:03.767Z,25.54
2019-06-20T08:15:15.140Z,25.59
2019-06-20T08:20:18.099Z,25.69
2019-06-20T08:25:23.992Z,25.77
2019-06-20T08:30:30.098Z,25.55
2019-06-20T08:35:34.397Z,24.91
2019-06-20T08:40:42.891Z,24.64
2019-06-20T08:45:47.085Z,24.57
2019-06-20T08:50:51.463Z,24.69
2019-06-20T08:55:56.325Z,25.20
2019-06-20T09:06:07.280Z,25.68
2019-06-20T09:11:11.357Z,25.56
2019-06-20T09:16:24.243Z,25.87
2019-06-20T09:21:20.609Z,26.04
2019-06-20T09:26:24.043Z,26.36
2019-06-20T09:31:28.396Z,26.54
2019-06-20T09:36:32.142Z,26.73
2019-06-20T09:41:35.956Z,27.48
2019-06-20T09:46:39.809Z,27.86
2019-06-20T09:51:43.976Z,27.98
2019-06-20T09:56:53.082Z,28.08
2019-06-20T10:01:56.574Z,27.78
2019-06-20T10:07:01.307Z,27.52
2019-06-20T10:12:05.911Z,26.89
2019-06-20T10:17:10.583Z,26.90
2019-06-20T10:22:18.527Z,27.11
2019-06-20T10:27:24.392Z,26.78
2019-06-20T10:32:28.414Z,26.17
2019-06-20T10:37:31.973Z,25.96
2019-06-20T10:42:35.930Z,26.42
2019-06-20T10:47:40.312Z,26.91
2019-06-20T10:52:48.021Z,27.56
2019-06-20T10:57:52.504Z,27.56
2019-06-20T11:02:57.677Z,28.07
2019-06-20T11:08:02.133Z,27.78
2019-06-20T11:13:05.775Z,27.72
2019-06-20T11:18:09.343Z,27.87
2019-06-20T11:23:12.827Z,28.00
2019-06-20T11:28:17.091Z,28.26
2019-06-20T11:33:21.751Z,28.28
2019-06-20T11:38:25.957Z,28.36
2019-06-20T11:43:29.949Z,28.35
2019-06-20T11:48:35.314Z,28.59
2019-06-20T11:53:40.639Z,29.00
2019-06-20T11:58:44.952Z,28.85
2019-06-20T12:03:48.998Z,29.07
2019-06-20T12:09:10.057Z,29.27
2019-06-20T12:14:14.763Z,29.30
2019-06-20T12:19:17.978Z,29.02
2019-06-20T12:24:21.799Z,28.95
2019-06-20T12:29:27.349Z,28.78
2019-06-20T12:34:31.072Z,28.59
2019-06-20T12:39:34.903Z,28.48
2019-06-20T12:44:40.066Z,28.61
2019-06-20T12:49:43.841Z,28.59
2019-06-20T12:54:47.644Z,28.46
2019-06-20T12:59:52.086Z,28.77
2019-06-20T13:04:56.162Z,28.58
2019-06-20T13:10:01.936Z,28.49
2019-06-20T13:15:07.418Z,28.64
2019-06-20T13:20:12.418Z,29.09
2019-06-20T13:25:18.117Z,29.48
2019-06-20T13:30:22.250Z,29.50
2019-06-20T13:35:26.359Z,29.39
2019-06-20T13:40:30.361Z,29.45
2019-06-20T13:45:34.461Z,29.52
2019-06-20T13:50:38.668Z,30.19
2019-06-20T13:55:44.133Z,30.00
2019-06-20T14:00:48.205Z,29.94
2019-06-20T14:05:53.680Z,30.01
2019-06-20T14:10:57.716Z,30.41
2019-06-20T14:16:02.028Z,30.28
2019-06-20T14:21:06.156Z,30.22
2019-06-20T14:26:10.156Z,30.10
2019-06-20T14:31:14.239Z,30.21
2019-06-20T14:36:18.071Z,30.37
2019-06-20T14:41:22.076Z,30.23
2019-06-20T14:46:25.841Z,30.25
2019-06-20T14:51:29.848Z,30.17
2019-06-20T14:56:34.187Z,30.27
2019-06-20T15:01:37.996Z,30.76
2019-06-20T15:06:42.431Z,30.47
2019-06-20T15:11:49.704Z,30.77
2019-06-20T15:16:53.943Z,30.56
2019-06-20T15:21:58.110Z,30.07
2019-06-20T15:27:02.487Z,29.75
2019-06-20T15:32:06.802Z,29.63
2019-06-20T15:37:10.843Z,30.09
2019-06-20T15:42:14.506Z,30.01
2019-06-20T15:47:18.096Z,30.35
2019-06-20T15:52:22.076Z,30.34
2019-06-20T15:57:26.412Z,30.31
2019-06-20T16:02:30.236Z,30.30
2019-06-20T16:07:34.488Z,30.42
2019-06-20T16:12:38.861Z,30.52
2019-06-20T16:17:42.857Z,30.42
2019-06-20T16:22:46.802Z,30.44
2019-06-20T16:27:50.457Z,30.63
2019-06-20T16:32:54.102Z,30.46
2019-06-20T16:37:57.538Z,30.56
2019-06-20T16:43:02.056Z,30.16
2019-06-20T16:48:06.117Z,30.42
2019-06-20T16:53:10.324Z,30.30
2019-06-20T16:58:14.629Z,29.60
2019-06-20T17:03:18.116Z,29.10
2019-06-20T17:08:22.292Z,28.68
2019-06-20T17:13:26.310Z,28.55
2019-06-20T17:18:30.279Z,28.78
2019-06-20T17:23:34.259Z,28.96
2019-06-20T17:28:37.991Z,28.77
2019-06-20T17:33:56.792Z,28.38
2019-06-20T17:38:48.977Z,28.26
2019-06-20T17:43:52.213Z,28.30
2019-06-20T17:48:56.570Z,28.07
2019-06-20T17:53:59.461Z,27.96
2019-06-20T17:59:02.336Z,27.82
2019-06-20T18:04:13.578Z,27.85
2019-06-20T18:09:10.031Z,27.49
2019-06-20T18:14:12.902Z,27.22
2019-06-20T18:19:15.653Z,26.97
2019-06-20T18:24:18.429Z,26.83
2019-06-20T18:29:21.211Z,26.74
2019-06-20T18:34:29.922Z,26.55
2019-06-20T18:39:28.697Z,26.46
2019-06-20T18:44:31.611Z,26.22
2019-06-20T18:49:34.414Z,26.07
2019-06-20T18:54:37.242Z,25.99
2019-06-20T18:59:40.015Z,25.96
2019-06-20T19:04:49.448Z,25.94
2019-06-20T19:09:47.884Z,25.77
2019-06-20T19:14:54.783Z,25.59
2019-06-20T19:19:57.678Z,25.42
2019-06-20T19:25:03.813Z,25.26
2019-06-20T19:30:05.570Z,25.10
2019-06-20T19:35:10.342Z,25.06
2019-06-20T19:40:13.985Z,25.00
2019-06-20T19:45:16.867Z,24.95
2019-06-20T19:50:20.134Z,24.72
2019-06-20T19:55:23.096Z,24.56
2019-06-20T20:00:25.839Z,24.40
2019-06-20T20:05:28.906Z,24.35
2019-06-20T20:10:47.496Z,24.32
2019-06-20T20:15:50.272Z,24.27
2019-06-20T20:20:53.044Z,24.24
2019-06-20T20:25:55.839Z,24.24
2019-06-20T20:30:58.610Z,23.87
2019-06-20T20:36:02.126Z,23.52
2019-06-20T20:41:04.984Z,23.60
2019-06-20T20:46:07.806Z,23.47
2019-06-20T20:51:10.813Z,22.81
2019-06-20T20:56:13.593Z,22.33
2019-06-20T21:01:28.814Z,22.24
2019-06-20T21:06:31.579Z,22.37
2019-06-20T21:11:34.404Z,22.54
2019-06-20T21:16:37.205Z,22.41
2019-06-20T21:21:40.094Z,22.53
2019-06-20T21:26:49.381Z,22.63
2019-06-20T21:31:47.647Z,22.64
2019-06-20T21:36:50.481Z,22.58
2019-06-20T21:41:53.331Z,22.48
2019-06-20T21:46:56.098Z,22.45
2019-06-20T21:51:58.887Z,22.56
2019-06-20T21:57:01.750Z,22.55
2019-06-20T22:02:05.750Z,22.49
2019-06-20T22:07:08.766Z,22.32
2019-06-20T22:12:11.555Z,22.24
2019-06-20T22:17:14.559Z,22.22
2019-06-20T22:22:17.419Z,22.24
2019-06-20T22:27:20.372Z,22.15
2019-06-20T22:32:23.168Z,22.03
2019-06-20T22:37:26.185Z,21.89
2019-06-20T22:42:29.366Z,21.84
2019-06-20T22:47:32.561Z,21.83
2019-06-20T22:52:35.728Z,21.72
2019-06-20T22:57:38.894Z,21.68
2019-06-20T23:02:42.114Z,21.63
2019-06-20T23:07:45.254Z,21.52
2019-06-20T23:12:48.358Z,21.50
2019-06-20T23:17:51.549Z,21.39
2019-06-20T23:22:54.751Z,21.33
2019-06-20T23:27:58.122Z,21.18
2019-06-20T23:33:01.095Z,21.03
2019-06-20T23:38:04.221Z,20.92
2019-06-20T23:43:07.526Z,20.96
2019-06-20T23:48:10.819Z,20.92
2019-06-20T23:53:25.670Z,20.88
2019-06-20T23:58:28.894Z,20.82
